sensor_id;sensor_type;location;lat;lon;timestamp;temperature;humidity
60909;DHT22;46780;48.128;-1.704;2022-12-31T00:01:25;15.90;99.90
60909;DHT22;46780;48.128;-1.704;2022-12-31T00:03:54;15.80;99.90
60909;DHT22;46780;48.128;-1.704;2022-12-31T00:06:23;15.80;99.90
60909;DHT22;46780;48.128;-1.704;2022-12-31T00:08:51;15.70;99.90
60909;DHT22;46780;48.128;-1.704;2022-12-31T00:11:18;15.70;99.90
60909;DHT22;46780;48.128;-1.704;2022-12-31T00:13:45;15.60;99.90
60909;DHT22;46780;48.128;-1.704;2022-12-31T00:16:14;15.60;99.90
60909;DHT22;46780;48.128;-1.704;2022-12-31T00:18:43;15.60;99.90
60909;DHT22;46780;48.128;-1.704;2022-12-31T00:21:12;15.60;99.90
60909;DHT22;46780;48.128;-1.704;2022-12-31T00:23:39;15.60;99.90
60909;DHT22;46780;48.128;-1.704;2022-12-31T00:26:07;15.60;99.90
60909;DHT22;46780;48.128;-1.704;2022-12-31T00:28:34;15.60;99.90
60909;DHT22;46780;48.128;-1.704;2022-12-31T00:31:06;15.60;99.90
60909;DHT22;46780;48.128;-1.704;2022-12-31T00:33:33;15.60;99.90
60909;DHT22;46780;48.128;-1.704;2022-12-31T00:36:04;15.60;99.90
60909;DHT22;46780;48.128;-1.704;2022-12-31T00:38:32;15.70;99.90
60909;DHT22;46780;48.128;-1.704;2022-12-31T00:40:59;15.80;99.90
60909;DHT22;46780;48.128;-1.704;2022-12-31T00:43:25;15.80;99.90
60909;DHT22;46780;48.128;-1.704;2022-12-31T00:45:51;15.80;99.90
60909;DHT22;46780;48.128;-1.704;2022-12-31T00:48:18;15.90;99.90
60909;DHT22;46780;48.128;-1.704;2022-12-31T00:50:44;15.90;99.90
60909;DHT22;46780;48.128;-1.704;2022-12-31T00:53:11;15.90;99.90
60909;DHT22;46780;48.128;-1.704;2022-12-31T00:55:39;16.00;99.90
60909;DHT22;46780;48.128;-1.704;2022-12-31T00:58:05;16.00;99.90
60909;DHT22;46780;48.128;-1.704;2022-12-31T01:00:32;16.00;99.90
60909;DHT22;46780;48.128;-1.704;2022-12-31T01:02:58;16.10;99.90
60909;DHT22;46780;48.128;-1.704;2022-12-31T01:05:25;16.10;99.90
60909;DHT22;46780;48.128;-1.704;2022-12-31T01:07:51;16.10;99.90
60909;DHT22;46780;48.128;-1.704;2022-12-31T01:10:18;16.20;99.90
60909;DHT22;46780;48.128;-1.704;2022-12-31T01:12:46;16.30;99.90
60909;DHT22;46780;48.128;-1.704;2022-12-31T01:15:12;16.30;99.90
60909;DHT22;46780;48.128;-1.704;2022-12-31T01:17:38;16.30;99.90
60909;DHT22;46780;48.128;-1.704;2022-12-31T01:20:06;16.40;99.90
60909;DHT22;46780;48.128;-1.704;2022-12-31T01:22:32;16.40;99.90
60909;DHT22;46780;48.128;-1.704;2022-12-31T01:24:59;16.50;99.90
60909;DHT22;46780;48.128;-1.704;2022-12-31T01:27:25;16.50;99.90
60909;DHT22;46780;48.128;-1.704;2022-12-31T01:29:53;16.40;99.90
60909;DHT22;46780;48.128;-1.704;2022-12-31T01:32:20;16.50;99.90
60909;DHT22;46780;48.128;-1.704;2022-12-31T01:34:46;16.40;99.90
60909;DHT22;46780;48.128;-1.704;2022-12-31T01:37:13;16.40;99.90
60909;DHT22;46780;48.128;-1.704;2022-12-31T01:39:39;16.40;99.90
60909;DHT22;46780;48.128;-1.704;2022-12-31T01:42:09;16.50;99.90
60909;DHT22;46780;48.128;-1.704;2022-12-31T01:44:54;16.50;99.90
60909;DHT22;46780;48.128;-1.704;2022-12-31T01:47:36;16.50;99.90
60909;DHT22;46780;48.128;-1.704;2022-12-31T01:50:09;16.40;99.90
60909;DHT22;46780;48.128;-1.704;2022-12-31T01:52:41;16.20;99.90
60909;DHT22;46780;48.128;-1.704;2022-12-31T01:55:15;16.10;99.90
60909;DHT22;46780;48.128;-1.704;2022-12-31T01:57:42;16.00;99.90
60909;DHT22;46780;48.128;-1.704;2022-12-31T02:00:11;15.90;99.90
60909;DHT22;46780;48.128;-1.704;2022-12-31T02:02:37;15.80;99.90
60909;DHT22;46780;48.128;-1.704;2022-12-31T02:05:09;15.80;99.90
60909;DHT22;46780;48.128;-1.704;2022-12-31T02:07:38;15.80;99.90
60909;DHT22;46780;48.128;-1.704;2022-12-31T02:10:05;15.80;99.90
60909;DHT22;46780;48.128;-1.704;2022-12-31T02:12:32;15.90;99.90
60909;DHT22;46780;48.128;-1.704;2022-12-31T02:14:58;16.00;99.90
60909;DHT22;46780;48.128;-1.704;2022-12-31T02:17:31;16.10;99.90
60909;DHT22;46780;48.128;-1.704;2022-12-31T02:20:14;16.10;99.90
60909;DHT22;46780;48.128;-1.704;2022-12-31T02:22:57;16.20;99.90
60909;DHT22;46780;48.128;-1.704;2022-12-31T02:25:43;16.20;99.90
60909;DHT22;46780;48.128;-1.704;2022-12-31T02:28:22;16.20;99.90
60909;DHT22;46780;48.128;-1.704;2022-12-31T02:30:54;16.30;99.90
60909;DHT22;46780;48.128;-1.704;2022-12-31T02:33:28;16.30;99.90
60909;DHT22;46780;48.128;-1.704;2022-12-31T02:36:00;16.40;99.90
60909;DHT22;46780;48.128;-1.704;2022-12-31T02:38:29;16.40;99.90
60909;DHT22;46780;48.128;-1.704;2022-12-31T02:40:57;16.50;99.90
60909;DHT22;46780;48.128;-1.704;2022-12-31T02:43:24;16.50;99.90
60909;DHT22;46780;48.128;-1.704;2022-12-31T02:45:57;16.50;99.90
60909;DHT22;46780;48.128;-1.704;2022-12-31T02:48:35;16.50;99.90
60909;DHT22;46780;48.128;-1.704;2022-12-31T02:51:12;16.60;99.90
60909;DHT22;46780;48.128;-1.704;2022-12-31T02:56:47;16.60;99.90
60909;DHT22;46780;48.128;-1.704;2022-12-31T02:59:22;16.50;99.90
60909;DHT22;46780;48.128;-1.704;2022-12-31T03:01:57;16.60;99.90
60909;DHT22;46780;48.128;-1.704;2022-12-31T03:04:25;16.70;99.90
60909;DHT22;46780;48.128;-1.704;2022-12-31T03:06:53;16.70;99.60
60909;DHT22;46780;48.128;-1.704;2022-12-31T03:09:20;16.70;98.90
60909;DHT22;46780;48.128;-1.704;2022-12-31T03:11:46;16.80;98.70
60909;DHT22;46780;48.128;-1.704;2022-12-31T03:14:13;16.80;98.50
60909;DHT22;46780;48.128;-1.704;2022-12-31T03:16:40;16.80;98.60
60909;DHT22;46780;48.128;-1.704;2022-12-31T03:19:07;16.80;98.40
60909;DHT22;46780;48.128;-1.704;2022-12-31T03:21:34;16.90;97.70
60909;DHT22;46780;48.128;-1.704;2022-12-31T03:24:00;16.90;97.60
60909;DHT22;46780;48.128;-1.704;2022-12-31T03:26:27;16.90;98.00
60909;DHT22;46780;48.128;-1.704;2022-12-31T03:28:53;16.80;99.20
60909;DHT22;46780;48.128;-1.704;2022-12-31T03:31:20;16.70;99.20
60909;DHT22;46780;48.128;-1.704;2022-12-31T03:33:46;16.70;99.20
60909;DHT22;46780;48.128;-1.704;2022-12-31T03:36:14;16.60;98.60
60909;DHT22;46780;48.128;-1.704;2022-12-31T03:38:41;16.70;98.60
60909;DHT22;46780;48.128;-1.704;2022-12-31T03:41:09;16.70;97.80
60909;DHT22;46780;48.128;-1.704;2022-12-31T03:43:35;16.80;97.30
60909;DHT22;46780;48.128;-1.704;2022-12-31T03:46:02;16.80;96.30
60909;DHT22;46780;48.128;-1.704;2022-12-31T03:48:28;17.00;95.50
60909;DHT22;46780;48.128;-1.704;2022-12-31T03:50:55;17.00;95.30
60909;DHT22;46780;48.128;-1.704;2022-12-31T03:53:22;17.10;94.90
60909;DHT22;46780;48.128;-1.704;2022-12-31T03:55:50;17.10;94.40
60909;DHT22;46780;48.128;-1.704;2022-12-31T03:58:17;17.20;94.00
60909;DHT22;46780;48.128;-1.704;2022-12-31T04:00:43;17.20;93.80
60909;DHT22;46780;48.128;-1.704;2022-12-31T04:03:09;17.20;93.80
60909;DHT22;46780;48.128;-1.704;2022-12-31T04:05:36;17.30;93.60
60909;DHT22;46780;48.128;-1.704;2022-12-31T04:08:02;17.40;93.10
60909;DHT22;46780;48.128;-1.704;2022-12-31T04:10:30;17.40;93.00
60909;DHT22;46780;48.128;-1.704;2022-12-31T04:12:57;17.40;92.90
60909;DHT22;46780;48.128;-1.704;2022-12-31T04:15:23;17.40;92.90
60909;DHT22;46780;48.128;-1.704;2022-12-31T04:17:50;17.30;92.90
60909;DHT22;46780;48.128;-1.704;2022-12-31T04:20:16;17.30;93.40
60909;DHT22;46780;48.128;-1.704;2022-12-31T04:22:43;17.20;94.00
60909;DHT22;46780;48.128;-1.704;2022-12-31T04:25:09;17.10;94.00
60909;DHT22;46780;48.128;-1.704;2022-12-31T04:27:38;17.10;94.20
60909;DHT22;46780;48.128;-1.704;2022-12-31T04:30:06;17.10;93.50
60909;DHT22;46780;48.128;-1.704;2022-12-31T04:32:33;17.00;93.30
60909;DHT22;46780;48.128;-1.704;2022-12-31T04:34:59;17.00;93.10
60909;DHT22;46780;48.128;-1.704;2022-12-31T04:37:25;17.10;93.20
60909;DHT22;46780;48.128;-1.704;2022-12-31T04:39:52;17.10;92.50
60909;DHT22;46780;48.128;-1.704;2022-12-31T04:42:18;17.10;92.80
60909;DHT22;46780;48.128;-1.704;2022-12-31T04:44:46;17.00;99.90
60909;DHT22;46780;48.128;-1.704;2022-12-31T04:47:13;16.90;99.90
60909;DHT22;46780;48.128;-1.704;2022-12-31T04:49:39;16.70;99.90
60909;DHT22;46780;48.128;-1.704;2022-12-31T04:52:06;16.60;99.90
60909;DHT22;46780;48.128;-1.704;2022-12-31T04:54:32;16.60;99.90
60909;DHT22;46780;48.128;-1.704;2022-12-31T04:56:59;16.60;99.90
60909;DHT22;46780;48.128;-1.704;2022-12-31T04:59:25;16.70;97.80
60909;DHT22;46780;48.128;-1.704;2022-12-31T05:01:53;16.70;97.00
60909;DHT22;46780;48.128;-1.704;2022-12-31T05:04:20;16.70;96.30
60909;DHT22;46780;48.128;-1.704;2022-12-31T05:06:46;16.70;96.00
60909;DHT22;46780;48.128;-1.704;2022-12-31T05:09:13;16.80;95.70
60909;DHT22;46780;48.128;-1.704;2022-12-31T05:11:39;16.90;95.50
60909;DHT22;46780;48.128;-1.704;2022-12-31T05:14:05;16.90;94.80
60909;DHT22;46780;48.128;-1.704;2022-12-31T05:16:32;16.90;95.00
60909;DHT22;46780;48.128;-1.704;2022-12-31T05:19:00;16.90;94.70
60909;DHT22;46780;48.128;-1.704;2022-12-31T05:21:26;16.90;94.60
60909;DHT22;46780;48.128;-1.704;2022-12-31T05:23:53;16.90;94.50
60909;DHT22;46780;48.128;-1.704;2022-12-31T05:26:20;16.90;94.20
60909;DHT22;46780;48.128;-1.704;2022-12-31T05:28:46;16.90;94.00
60909;DHT22;46780;48.128;-1.704;2022-12-31T05:31:12;16.90;94.40
60909;DHT22;46780;48.128;-1.704;2022-12-31T05:33:39;16.90;94.00
60909;DHT22;46780;48.128;-1.704;2022-12-31T05:36:07;16.90;94.20
60909;DHT22;46780;48.128;-1.704;2022-12-31T05:38:34;16.90;94.30
60909;DHT22;46780;48.128;-1.704;2022-12-31T05:41:03;16.80;95.00
60909;DHT22;46780;48.128;-1.704;2022-12-31T05:43:30;16.70;97.30
60909;DHT22;46780;48.128;-1.704;2022-12-31T05:45:59;16.50;99.00
60909;DHT22;46780;48.128;-1.704;2022-12-31T05:48:26;16.30;99.40
60909;DHT22;46780;48.128;-1.704;2022-12-31T05:50:52;16.20;99.90
60909;DHT22;46780;48.128;-1.704;2022-12-31T05:53:20;16.10;99.90
60909;DHT22;46780;48.128;-1.704;2022-12-31T05:55:47;16.10;99.90
60909;DHT22;46780;48.128;-1.704;2022-12-31T05:58:14;16.00;99.90
60909;DHT22;46780;48.128;-1.704;2022-12-31T06:00:41;16.10;99.30
60909;DHT22;46780;48.128;-1.704;2022-12-31T06:03:08;16.10;99.00
60909;DHT22;46780;48.128;-1.704;2022-12-31T06:05:38;16.10;97.60
60909;DHT22;46780;48.128;-1.704;2022-12-31T06:08:05;16.20;97.60
60909;DHT22;46780;48.128;-1.704;2022-12-31T06:10:33;16.20;96.60
60909;DHT22;46780;48.128;-1.704;2022-12-31T06:12:59;16.20;96.40
60909;DHT22;46780;48.128;-1.704;2022-12-31T06:15:26;16.30;95.60
60909;DHT22;46780;48.128;-1.704;2022-12-31T06:17:52;16.30;95.10
60909;DHT22;46780;48.128;-1.704;2022-12-31T06:20:18;16.40;94.40
60909;DHT22;46780;48.128;-1.704;2022-12-31T06:22:45;16.50;93.60
60909;DHT22;46780;48.128;-1.704;2022-12-31T06:25:11;16.60;93.00
60909;DHT22;46780;48.128;-1.704;2022-12-31T06:27:39;16.60;92.50
60909;DHT22;46780;48.128;-1.704;2022-12-31T06:30:07;16.70;91.90
60909;DHT22;46780;48.128;-1.704;2022-12-31T06:32:34;16.80;92.00
60909;DHT22;46780;48.128;-1.704;2022-12-31T06:35:00;16.80;91.50
60909;DHT22;46780;48.128;-1.704;2022-12-31T06:37:27;16.80;91.50
60909;DHT22;46780;48.128;-1.704;2022-12-31T06:39:53;16.90;91.10
60909;DHT22;46780;48.128;-1.704;2022-12-31T06:42:20;16.90;91.20
60909;DHT22;46780;48.128;-1.704;2022-12-31T06:44:48;16.90;90.80
60909;DHT22;46780;48.128;-1.704;2022-12-31T06:47:14;16.90;90.60
60909;DHT22;46780;48.128;-1.704;2022-12-31T06:49:41;16.90;90.90
60909;DHT22;46780;48.128;-1.704;2022-12-31T06:52:07;16.90;91.10
60909;DHT22;46780;48.128;-1.704;2022-12-31T06:54:34;16.80;92.40
60909;DHT22;46780;48.128;-1.704;2022-12-31T06:57:01;16.70;93.40
60909;DHT22;46780;48.128;-1.704;2022-12-31T06:59:28;16.50;95.00
60909;DHT22;46780;48.128;-1.704;2022-12-31T07:02:16;16.30;96.50
60909;DHT22;46780;48.128;-1.704;2022-12-31T07:05:06;16.10;98.20
60909;DHT22;46780;48.128;-1.704;2022-12-31T07:07:41;15.90;99.30
60909;DHT22;46780;48.128;-1.704;2022-12-31T07:10:19;15.70;99.90
60909;DHT22;46780;48.128;-1.704;2022-12-31T07:13:03;15.60;99.90
60909;DHT22;46780;48.128;-1.704;2022-12-31T07:15:43;15.60;99.90
60909;DHT22;46780;48.128;-1.704;2022-12-31T07:18:23;15.60;99.90
60909;DHT22;46780;48.128;-1.704;2022-12-31T07:20:53;15.50;99.90
60909;DHT22;46780;48.128;-1.704;2022-12-31T07:23:19;15.50;99.90
60909;DHT22;46780;48.128;-1.704;2022-12-31T07:25:52;15.50;99.90
60909;DHT22;46780;48.128;-1.704;2022-12-31T07:28:30;15.50;99.90
60909;DHT22;46780;48.128;-1.704;2022-12-31T07:31:05;15.40;99.90
60909;DHT22;46780;48.128;-1.704;2022-12-31T07:33:46;15.40;99.90
60909;DHT22;46780;48.128;-1.704;2022-12-31T07:36:26;15.40;99.90
60909;DHT22;46780;48.128;-1.704;2022-12-31T07:38:58;15.40;99.90
60909;DHT22;46780;48.128;-1.704;2022-12-31T07:41:40;15.50;99.90
60909;DHT22;46780;48.128;-1.704;2022-12-31T07:44:15;15.50;98.90
60909;DHT22;46780;48.128;-1.704;2022-12-31T07:46:50;15.60;98.50
60909;DHT22;46780;48.128;-1.704;2022-12-31T07:49:21;15.60;97.10
60909;DHT22;46780;48.128;-1.704;2022-12-31T07:51:48;15.70;96.30
60909;DHT22;46780;48.128;-1.704;2022-12-31T07:54:15;15.80;95.40
60909;DHT22;46780;48.128;-1.704;2022-12-31T07:56:43;15.90;95.10
60909;DHT22;46780;48.128;-1.704;2022-12-31T07:59:19;16.00;94.30
60909;DHT22;46780;48.128;-1.704;2022-12-31T08:01:52;16.00;94.90
60909;DHT22;46780;48.128;-1.704;2022-12-31T08:04:26;16.10;93.50
60909;DHT22;46780;48.128;-1.704;2022-12-31T08:06:59;16.10;93.20
60909;DHT22;46780;48.128;-1.704;2022-12-31T08:09:34;16.20;93.10
60909;DHT22;46780;48.128;-1.704;2022-12-31T08:12:03;16.20;92.00
60909;DHT22;46780;48.128;-1.704;2022-12-31T08:14:30;16.30;91.80
60909;DHT22;46780;48.128;-1.704;2022-12-31T08:16:58;16.40;91.10
60909;DHT22;46780;48.128;-1.704;2022-12-31T08:19:28;16.40;90.60
60909;DHT22;46780;48.128;-1.704;2022-12-31T08:24:57;16.50;88.90
60909;DHT22;46780;48.128;-1.704;2022-12-31T08:27:32;16.60;86.80
60909;DHT22;46780;48.128;-1.704;2022-12-31T08:30:06;16.60;86.40
60909;DHT22;46780;48.128;-1.704;2022-12-31T08:32:38;16.60;86.40
60909;DHT22;46780;48.128;-1.704;2022-12-31T08:35:18;16.60;84.50
60909;DHT22;46780;48.128;-1.704;2022-12-31T08:37:52;16.60;84.70
60909;DHT22;46780;48.128;-1.704;2022-12-31T08:40:24;16.60;81.70
60909;DHT22;46780;48.128;-1.704;2022-12-31T08:43:08;16.60;81.20
60909;DHT22;46780;48.128;-1.704;2022-12-31T08:45:40;16.70;78.20
60909;DHT22;46780;48.128;-1.704;2022-12-31T08:48:16;16.80;77.20
60909;DHT22;46780;48.128;-1.704;2022-12-31T08:50:47;16.80;75.20
60909;DHT22;46780;48.128;-1.704;2022-12-31T08:53:13;16.90;76.00
60909;DHT22;46780;48.128;-1.704;2022-12-31T08:55:41;16.80;74.50
60909;DHT22;46780;48.128;-1.704;2022-12-31T08:58:19;16.80;75.80
60909;DHT22;46780;48.128;-1.704;2022-12-31T09:00:51;16.90;73.30
60909;DHT22;46780;48.128;-1.704;2022-12-31T09:03:22;16.90;73.40
60909;DHT22;46780;48.128;-1.704;2022-12-31T09:05:58;16.90;72.60
60909;DHT22;46780;48.128;-1.704;2022-12-31T09:08:32;16.90;72.10
60909;DHT22;46780;48.128;-1.704;2022-12-31T09:11:09;17.00;72.30
60909;DHT22;46780;48.128;-1.704;2022-12-31T09:13:45;17.00;71.10
60909;DHT22;46780;48.128;-1.704;2022-12-31T09:16:19;17.10;71.50
60909;DHT22;46780;48.128;-1.704;2022-12-31T09:18:47;17.10;71.40
60909;DHT22;46780;48.128;-1.704;2022-12-31T09:21:16;17.20;70.60
60909;DHT22;46780;48.128;-1.704;2022-12-31T09:23:42;17.20;70.50
60909;DHT22;46780;48.128;-1.704;2022-12-31T09:26:19;17.20;71.20
60909;DHT22;46780;48.128;-1.704;2022-12-31T09:28:51;17.30;70.80
60909;DHT22;46780;48.128;-1.704;2022-12-31T09:31:24;17.30;69.60
60909;DHT22;46780;48.128;-1.704;2022-12-31T09:34:02;17.40;70.90
60909;DHT22;46780;48.128;-1.704;2022-12-31T09:36:36;17.40;72.10
60909;DHT22;46780;48.128;-1.704;2022-12-31T09:39:11;17.40;71.50
60909;DHT22;46780;48.128;-1.704;2022-12-31T09:48:36;17.30;71.40
60909;DHT22;46780;48.128;-1.704;2022-12-31T09:51:20;17.30;73.00
60909;DHT22;46780;48.128;-1.704;2022-12-31T09:54:02;17.20;73.20
60909;DHT22;46780;48.128;-1.704;2022-12-31T09:56:34;17.20;73.60
60909;DHT22;46780;48.128;-1.704;2022-12-31T09:59:05;17.20;72.30
60909;DHT22;46780;48.128;-1.704;2022-12-31T10:01:44;17.20;73.70
60909;DHT22;46780;48.128;-1.704;2022-12-31T10:04:28;17.30;73.50
60909;DHT22;46780;48.128;-1.704;2022-12-31T10:07:14;17.30;73.50
60909;DHT22;46780;48.128;-1.704;2022-12-31T10:09:54;17.40;73.60
60909;DHT22;46780;48.128;-1.704;2022-12-31T10:15:45;17.50;74.00
60909;DHT22;46780;48.128;-1.704;2022-12-31T10:18:22;17.50;74.50
60909;DHT22;46780;48.128;-1.704;2022-12-31T10:21:04;17.50;73.80
60909;DHT22;46780;48.128;-1.704;2022-12-31T10:23:57;17.50;73.90
60909;DHT22;46780;48.128;-1.704;2022-12-31T10:26:48;17.40;74.30
60909;DHT22;46780;48.128;-1.704;2022-12-31T10:29:24;17.30;74.70
60909;DHT22;46780;48.128;-1.704;2022-12-31T10:32:10;17.20;76.20
60909;DHT22;46780;48.128;-1.704;2022-12-31T10:34:53;17.20;76.50
60909;DHT22;46780;48.128;-1.704;2022-12-31T10:37:21;17.20;77.60
60909;DHT22;46780;48.128;-1.704;2022-12-31T10:39:54;17.10;78.30
60909;DHT22;46780;48.128;-1.704;2022-12-31T10:46:24;17.00;80.90
60909;DHT22;46780;48.128;-1.704;2022-12-31T10:49:31;17.00;82.90
60909;DHT22;46780;48.128;-1.704;2022-12-31T10:52:25;16.90;83.80
60909;DHT22;46780;48.128;-1.704;2022-12-31T10:55:37;16.90;85.20
60909;DHT22;46780;48.128;-1.704;2022-12-31T11:01:16;17.00;86.60
60909;DHT22;46780;48.128;-1.704;2022-12-31T11:04:14;16.90;87.30
60909;DHT22;46780;48.128;-1.704;2022-12-31T11:07:18;17.00;87.20
60909;DHT22;46780;48.128;-1.704;2022-12-31T11:10:15;17.00;86.30
60909;DHT22;46780;48.128;-1.704;2022-12-31T11:16:08;17.10;86.60
60909;DHT22;46780;48.128;-1.704;2022-12-31T11:18:46;17.10;85.80
60909;DHT22;46780;48.128;-1.704;2022-12-31T11:21:22;17.20;83.40
60909;DHT22;46780;48.128;-1.704;2022-12-31T11:23:57;17.20;82.20
60909;DHT22;46780;48.128;-1.704;2022-12-31T11:26:38;17.30;82.50
60909;DHT22;46780;48.128;-1.704;2022-12-31T11:32:16;17.50;79.40
60909;DHT22;46780;48.128;-1.704;2022-12-31T11:35:07;17.60;77.50
60909;DHT22;46780;48.128;-1.704;2022-12-31T11:37:42;17.80;75.30
60909;DHT22;46780;48.128;-1.704;2022-12-31T11:40:30;17.90;73.00
60909;DHT22;46780;48.128;-1.704;2022-12-31T11:42:59;18.00;71.50
60909;DHT22;46780;48.128;-1.704;2022-12-31T11:45:42;18.00;71.90
60909;DHT22;46780;48.128;-1.704;2022-12-31T11:48:15;18.00;70.70
60909;DHT22;46780;48.128;-1.704;2022-12-31T11:50:53;18.10;71.10
60909;DHT22;46780;48.128;-1.704;2022-12-31T11:53:38;18.20;68.70
60909;DHT22;46780;48.128;-1.704;2022-12-31T11:56:15;18.30;67.80
60909;DHT22;46780;48.128;-1.704;2022-12-31T11:58:45;18.30;67.70
60909;DHT22;46780;48.128;-1.704;2022-12-31T12:01:17;18.30;67.30
60909;DHT22;46780;48.128;-1.704;2022-12-31T12:03:45;18.40;66.50
60909;DHT22;46780;48.128;-1.704;2022-12-31T12:06:16;18.50;65.50
60909;DHT22;46780;48.128;-1.704;2022-12-31T12:08:44;18.40;65.40
60909;DHT22;46780;48.128;-1.704;2022-12-31T12:11:17;18.40;65.80
60909;DHT22;46780;48.128;-1.704;2022-12-31T12:13:44;18.40;65.30
60909;DHT22;46780;48.128;-1.704;2022-12-31T12:16:10;18.50;64.60
60909;DHT22;46780;48.128;-1.704;2022-12-31T12:18:41;18.50;62.80
60909;DHT22;46780;48.128;-1.704;2022-12-31T12:21:10;18.40;63.40
60909;DHT22;46780;48.128;-1.704;2022-12-31T12:23:39;18.50;61.30
60909;DHT22;46780;48.128;-1.704;2022-12-31T12:26:13;18.40;60.50
60909;DHT22;46780;48.128;-1.704;2022-12-31T12:28:50;18.40;62.00
60909;DHT22;46780;48.128;-1.704;2022-12-31T12:31:19;18.30;60.60
60909;DHT22;46780;48.128;-1.704;2022-12-31T12:33:47;18.30;60.80
60909;DHT22;46780;48.128;-1.704;2022-12-31T12:36:16;18.20;60.10
60909;DHT22;46780;48.128;-1.704;2022-12-31T12:38:44;18.20;60.00
60909;DHT22;46780;48.128;-1.704;2022-12-31T12:41:17;18.20;59.40
60909;DHT22;46780;48.128;-1.704;2022-12-31T12:43:44;18.20;58.40
60909;DHT22;46780;48.128;-1.704;2022-12-31T12:46:19;18.20;58.30
60909;DHT22;46780;48.128;-1.704;2022-12-31T12:48:47;18.10;58.80
60909;DHT22;46780;48.128;-1.704;2022-12-31T12:51:26;18.20;57.10
60909;DHT22;46780;48.128;-1.704;2022-12-31T12:54:03;18.20;57.90
60909;DHT22;46780;48.128;-1.704;2022-12-31T12:56:39;18.20;56.20
60909;DHT22;46780;48.128;-1.704;2022-12-31T13:02:43;18.20;56.60
60909;DHT22;46780;48.128;-1.704;2022-12-31T13:05:19;18.30;55.60
60909;DHT22;46780;48.128;-1.704;2022-12-31T13:07:54;18.30;55.60
60909;DHT22;46780;48.128;-1.704;2022-12-31T13:10:38;18.30;54.60
60909;DHT22;46780;48.128;-1.704;2022-12-31T13:13:14;18.30;55.10
60909;DHT22;46780;48.128;-1.704;2022-12-31T13:15:48;18.20;55.10
60909;DHT22;46780;48.128;-1.704;2022-12-31T13:18:24;18.20;54.70
60909;DHT22;46780;48.128;-1.704;2022-12-31T13:20:58;18.20;53.50
60909;DHT22;46780;48.128;-1.704;2022-12-31T13:23:33;18.30;52.50
60909;DHT22;46780;48.128;-1.704;2022-12-31T13:26:08;18.30;52.70
60909;DHT22;46780;48.128;-1.704;2022-12-31T13:28:37;18.30;52.00
60909;DHT22;46780;48.128;-1.704;2022-12-31T13:31:07;18.30;51.60
60909;DHT22;46780;48.128;-1.704;2022-12-31T13:33:36;18.40;52.00
60909;DHT22;46780;48.128;-1.704;2022-12-31T13:36:07;18.40;51.90
60909;DHT22;46780;48.128;-1.704;2022-12-31T13:38:35;18.40;51.50
60909;DHT22;46780;48.128;-1.704;2022-12-31T13:41:10;18.40;51.40
60909;DHT22;46780;48.128;-1.704;2022-12-31T13:43:40;18.50;51.60
60909;DHT22;46780;48.128;-1.704;2022-12-31T13:46:14;18.40;52.10
60909;DHT22;46780;48.128;-1.704;2022-12-31T13:48:47;18.40;51.80
60909;DHT22;46780;48.128;-1.704;2022-12-31T13:51:20;18.40;51.50
60909;DHT22;46780;48.128;-1.704;2022-12-31T13:53:52;18.50;51.20
60909;DHT22;46780;48.128;-1.704;2022-12-31T13:56:26;18.50;51.30
60909;DHT22;46780;48.128;-1.704;2022-12-31T13:58:59;18.50;51.50
60909;DHT22;46780;48.128;-1.704;2022-12-31T14:01:30;18.50;52.00
60909;DHT22;46780;48.128;-1.704;2022-12-31T14:04:04;18.50;52.20
60909;DHT22;46780;48.128;-1.704;2022-12-31T14:06:37;18.40;52.10
60909;DHT22;46780;48.128;-1.704;2022-12-31T14:09:07;18.40;52.50
60909;DHT22;46780;48.128;-1.704;2022-12-31T14:11:54;18.40;52.80
60909;DHT22;46780;48.128;-1.704;2022-12-31T14:14:28;18.40;52.00
60909;DHT22;46780;48.128;-1.704;2022-12-31T14:17:07;18.40;52.10
60909;DHT22;46780;48.128;-1.704;2022-12-31T14:19:45;18.40;52.10
60909;DHT22;46780;48.128;-1.704;2022-12-31T14:22:19;18.40;52.40
60909;DHT22;46780;48.128;-1.704;2022-12-31T14:24:49;18.40;52.80
60909;DHT22;46780;48.128;-1.704;2022-12-31T14:27:20;18.40;52.80
60909;DHT22;46780;48.128;-1.704;2022-12-31T14:29:50;18.30;53.30
60909;DHT22;46780;48.128;-1.704;2022-12-31T14:32:44;18.30;53.50
60909;DHT22;46780;48.128;-1.704;2022-12-31T14:35:22;18.30;54.10
60909;DHT22;46780;48.128;-1.704;2022-12-31T14:37:56;18.20;54.50
60909;DHT22;46780;48.128;-1.704;2022-12-31T14:40:27;18.10;54.80
60909;DHT22;46780;48.128;-1.704;2022-12-31T14:43:13;18.10;54.20
60909;DHT22;46780;48.128;-1.704;2022-12-31T14:45:52;18.10;54.10
60909;DHT22;46780;48.128;-1.704;2022-12-31T14:48:29;18.10;54.80
60909;DHT22;46780;48.128;-1.704;2022-12-31T14:51:00;18.10;54.80
60909;DHT22;46780;48.128;-1.704;2022-12-31T14:53:28;18.10;54.30
60909;DHT22;46780;48.128;-1.704;2022-12-31T14:55:59;18.10;53.50
60909;DHT22;46780;48.128;-1.704;2022-12-31T14:58:34;18.20;53.80
60909;DHT22;46780;48.128;-1.704;2022-12-31T15:01:01;18.20;53.50
60909;DHT22;46780;48.128;-1.704;2022-12-31T15:03:37;18.20;53.80
60909;DHT22;46780;48.128;-1.704;2022-12-31T15:06:18;18.20;53.90
60909;DHT22;46780;48.128;-1.704;2022-12-31T15:09:01;18.10;54.20
60909;DHT22;46780;48.128;-1.704;2022-12-31T15:11:42;18.20;54.80
60909;DHT22;46780;48.128;-1.704;2022-12-31T15:14:38;18.20;54.50
60909;DHT22;46780;48.128;-1.704;2022-12-31T15:17:17;18.20;53.80
60909;DHT22;46780;48.128;-1.704;2022-12-31T15:22:44;18.20;54.00
60909;DHT22;46780;48.128;-1.704;2022-12-31T15:25:25;18.20;53.10
60909;DHT22;46780;48.128;-1.704;2022-12-31T15:27:53;18.10;53.80
60909;DHT22;46780;48.128;-1.704;2022-12-31T15:30:35;18.10;53.00
60909;DHT22;46780;48.128;-1.704;2022-12-31T15:33:05;18.20;52.70
60909;DHT22;46780;48.128;-1.704;2022-12-31T15:35:45;18.10;52.60
60909;DHT22;46780;48.128;-1.704;2022-12-31T15:38:33;18.10;52.30
60909;DHT22;46780;48.128;-1.704;2022-12-31T15:41:13;18.20;52.10
60909;DHT22;46780;48.128;-1.704;2022-12-31T15:43:44;18.20;52.50
60909;DHT22;46780;48.128;-1.704;2022-12-31T15:46:17;18.20;52.00
60909;DHT22;46780;48.128;-1.704;2022-12-31T15:48:47;18.20;52.10
60909;DHT22;46780;48.128;-1.704;2022-12-31T15:51:17;18.20;52.00
60909;DHT22;46780;48.128;-1.704;2022-12-31T15:53:47;18.20;52.60
60909;DHT22;46780;48.128;-1.704;2022-12-31T15:56:18;18.10;52.80
60909;DHT22;46780;48.128;-1.704;2022-12-31T15:58:46;18.20;52.90
60909;DHT22;46780;48.128;-1.704;2022-12-31T16:01:19;18.10;53.10
60909;DHT22;46780;48.128;-1.704;2022-12-31T16:03:57;18.10;53.20
60909;DHT22;46780;48.128;-1.704;2022-12-31T16:06:27;18.10;53.30
60909;DHT22;46780;48.128;-1.704;2022-12-31T16:08:54;18.00;53.70
60909;DHT22;46780;48.128;-1.704;2022-12-31T16:11:22;18.00;53.90
60909;DHT22;46780;48.128;-1.704;2022-12-31T16:13:51;18.10;53.70
60909;DHT22;46780;48.128;-1.704;2022-12-31T16:16:22;18.10;54.00
60909;DHT22;46780;48.128;-1.704;2022-12-31T16:18:49;18.10;54.20
60909;DHT22;46780;48.128;-1.704;2022-12-31T16:21:28;18.10;53.50